Bellevue, Texas
Current Conditions -  °F | °C
As of 1:35 PM on Monday 22 Dec 2014 (Local Time) from K0F2 Reporting Station
Clear Clear  
Wind Chill: 56°   Ceiling: Unl
Heat Index: 56°   Visibility: 10mi
Dew Point: 45°   Wind: 15mph
Humidity: 64%   Direction: 310°NW
Pressure: 29.6"   Gusts: 20mph
Location:  33.64°N, 98.01°W
Report Text: K0F2 221935Z AUTO 31013G17KT 10SM CLR 14/07 A2960 RMK AO2 T01360070
Loading
Personal Weather Stations






























Interactive Weather Map New forecast layout! Learn more

10-Day Weather Forecast

Advertisements
Track Severe Weather on mobile